sensor_id;sensor_type;location;lat;lon;timestamp;P1;durP1;ratioP1;P2;durP2;ratioP2
22240;SDS011;11289;52.524;13.694;2023-08-31T00:00:13;3.88;;;2.92;;
22240;SDS011;11289;52.524;13.694;2023-08-31T00:02:41;4.25;;;3.45;;
22240;SDS011;11289;52.524;13.694;2023-08-31T00:05:07;4.47;;;3.30;;
22240;SDS011;11289;52.524;13.694;2023-08-31T00:07:33;3.55;;;3.10;;
22240;SDS011;11289;52.524;13.694;2023-08-31T00:09:59;4.03;;;2.92;;
22240;SDS011;11289;52.524;13.694;2023-08-31T00:12:25;8.07;;;3.58;;
22240;SDS011;11289;52.524;13.694;2023-08-31T00:14:51;3.80;;;3.42;;
22240;SDS011;11289;52.524;13.694;2023-08-31T00:17:17;4.25;;;3.53;;
22240;SDS011;11289;52.524;13.694;2023-08-31T00:19:43;5.22;;;3.47;;
22240;SDS011;11289;52.524;13.694;2023-08-31T00:22:09;3.60;;;3.30;;
22240;SDS011;11289;52.524;13.694;2023-08-31T00:24:35;3.80;;;3.50;;
22240;SDS011;11289;52.524;13.694;2023-08-31T00:27:02;3.75;;;3.30;;
22240;SDS011;11289;52.524;13.694;2023-08-31T00:29:29;4.53;;;3.83;;
22240;SDS011;11289;52.524;13.694;2023-08-31T00:31:56;3.95;;;3.63;;
22240;SDS011;11289;52.524;13.694;2023-08-31T00:34:22;3.60;;;2.95;;
22240;SDS011;11289;52.524;13.694;2023-08-31T00:36:48;5.32;;;3.55;;
22240;SDS011;11289;52.524;13.694;2023-08-31T00:39:14;3.75;;;3.40;;
22240;SDS011;11289;52.524;13.694;2023-08-31T00:41:43;6.45;;;2.88;;
22240;SDS011;11289;52.524;13.694;2023-08-31T00:44:11;3.83;;;3.10;;
22240;SDS011;11289;52.524;13.694;2023-08-31T00:46:37;8.30;;;3.40;;
22240;SDS011;11289;52.524;13.694;2023-08-31T00:49:03;3.83;;;3.30;;
22240;SDS011;11289;52.524;13.694;2023-08-31T00:51:32;5.18;;;3.30;;
22240;SDS011;11289;52.524;13.694;2023-08-31T00:53:58;4.68;;;3.47;;
22240;SDS011;11289;52.524;13.694;2023-08-31T00:56:24;4.47;;;3.53;;
22240;SDS011;11289;52.524;13.694;2023-08-31T00:58:51;4.65;;;3.20;;
22240;SDS011;11289;52.524;13.694;2023-08-31T01:06:46;4.38;;;3.42;;
22240;SDS011;11289;52.524;13.694;2023-08-31T01:09:25;4.13;;;3.40;;
22240;SDS011;11289;52.524;13.694;2023-08-31T01:17:24;3.92;;;3.28;;
22240;SDS011;11289;52.524;13.694;2023-08-31T01:19:54;6.18;;;3.58;;
22240;SDS011;11289;52.524;13.694;2023-08-31T01:25:09;4.00;;;3.17;;
22240;SDS011;11289;52.524;13.694;2023-08-31T01:27:36;4.35;;;3.95;;
22240;SDS011;11289;52.524;13.694;2023-08-31T01:30:04;4.53;;;4.13;;
22240;SDS011;11289;52.524;13.694;2023-08-31T01:32:31;4.20;;;3.50;;
22240;SDS011;11289;52.524;13.694;2023-08-31T01:34:57;5.63;;;3.58;;
22240;SDS011;11289;52.524;13.694;2023-08-31T01:37:29;4.40;;;3.35;;
22240;SDS011;11289;52.524;13.694;2023-08-31T01:40:02;4.55;;;3.97;;
22240;SDS011;11289;52.524;13.694;2023-08-31T01:42:43;4.72;;;4.32;;
22240;SDS011;11289;52.524;13.694;2023-08-31T01:45:10;4.20;;;3.80;;
22240;SDS011;11289;52.524;13.694;2023-08-31T01:47:41;5.65;;;3.65;;
22240;SDS011;11289;52.524;13.694;2023-08-31T01:50:07;4.75;;;3.33;;
22240;SDS011;11289;52.524;13.694;2023-08-31T01:52:33;4.63;;;4.18;;
22240;SDS011;11289;52.524;13.694;2023-08-31T01:54:59;4.38;;;3.92;;
22240;SDS011;11289;52.524;13.694;2023-08-31T01:57:25;4.82;;;4.20;;
22240;SDS011;11289;52.524;13.694;2023-08-31T01:59:51;6.63;;;4.40;;
22240;SDS011;11289;52.524;13.694;2023-08-31T02:02:18;4.20;;;3.80;;
22240;SDS011;11289;52.524;13.694;2023-08-31T02:04:44;5.65;;;3.85;;
22240;SDS011;11289;52.524;13.694;2023-08-31T02:07:11;5.47;;;3.75;;
22240;SDS011;11289;52.524;13.694;2023-08-31T02:09:37;5.07;;;4.00;;
22240;SDS011;11289;52.524;13.694;2023-08-31T02:12:04;5.78;;;3.88;;
22240;SDS011;11289;52.524;13.694;2023-08-31T02:14:30;4.38;;;3.97;;
22240;SDS011;11289;52.524;13.694;2023-08-31T02:16:56;4.20;;;3.80;;
22240;SDS011;11289;52.524;13.694;2023-08-31T02:19:22;4.55;;;4.15;;
22240;SDS011;11289;52.524;13.694;2023-08-31T02:21:47;7.25;;;3.78;;
22240;SDS011;11289;52.524;13.694;2023-08-31T02:24:14;4.88;;;3.63;;
22240;SDS011;11289;52.524;13.694;2023-08-31T02:26:40;5.00;;;3.63;;
22240;SDS011;11289;52.524;13.694;2023-08-31T02:29:06;4.72;;;2.90;;
22240;SDS011;11289;52.524;13.694;2023-08-31T02:31:32;3.58;;;2.83;;
22240;SDS011;11289;52.524;13.694;2023-08-31T02:33:58;2.80;;;2.60;;
22240;SDS011;11289;52.524;13.694;2023-08-31T02:36:24;3.45;;;2.70;;
22240;SDS011;11289;52.524;13.694;2023-08-31T02:38:50;4.43;;;2.85;;
22240;SDS011;11289;52.524;13.694;2023-08-31T02:41:16;3.47;;;2.55;;
22240;SDS011;11289;52.524;13.694;2023-08-31T02:43:45;2.67;;;2.47;;
22240;SDS011;11289;52.524;13.694;2023-08-31T02:46:11;3.22;;;2.85;;
22240;SDS011;11289;52.524;13.694;2023-08-31T02:48:37;3.38;;;2.80;;
22240;SDS011;11289;52.524;13.694;2023-08-31T02:51:04;6.47;;;2.40;;
22240;SDS011;11289;52.524;13.694;2023-08-31T02:53:30;3.67;;;2.55;;
22240;SDS011;11289;52.524;13.694;2023-08-31T02:55:56;2.20;;;1.98;;
22240;SDS011;11289;52.524;13.694;2023-08-31T02:58:23;1.90;;;1.77;;
22240;SDS011;11289;52.524;13.694;2023-08-31T03:00:49;3.63;;;2.67;;
22240;SDS011;11289;52.524;13.694;2023-08-31T03:03:15;3.58;;;2.55;;
22240;SDS011;11289;52.524;13.694;2023-08-31T03:05:42;3.17;;;1.90;;
22240;SDS011;11289;52.524;13.694;2023-08-31T03:08:08;2.60;;;1.95;;
22240;SDS011;11289;52.524;13.694;2023-08-31T03:10:35;2.80;;;2.17;;
22240;SDS011;11289;52.524;13.694;2023-08-31T03:13:01;2.15;;;1.60;;
22240;SDS011;11289;52.524;13.694;2023-08-31T03:15:27;3.55;;;2.17;;
22240;SDS011;11289;52.524;13.694;2023-08-31T03:17:53;2.88;;;1.80;;
22240;SDS011;11289;52.524;13.694;2023-08-31T03:20:20;2.97;;;1.45;;
22240;SDS011;11289;52.524;13.694;2023-08-31T03:22:48;2.33;;;1.55;;
22240;SDS011;11289;52.524;13.694;2023-08-31T03:25:14;2.63;;;1.65;;
22240;SDS011;11289;52.524;13.694;2023-08-31T03:27:40;2.70;;;1.77;;
22240;SDS011;11289;52.524;13.694;2023-08-31T03:30:07;1.92;;;1.20;;
22240;SDS011;11289;52.524;13.694;2023-08-31T03:32:33;3.70;;;1.80;;
22240;SDS011;11289;52.524;13.694;2023-08-31T03:35:01;3.25;;;1.70;;
22240;SDS011;11289;52.524;13.694;2023-08-31T03:37:29;2.35;;;1.67;;
22240;SDS011;11289;52.524;13.694;2023-08-31T03:39:56;2.25;;;1.73;;
22240;SDS011;11289;52.524;13.694;2023-08-31T03:42:26;2.75;;;1.88;;
22240;SDS011;11289;52.524;13.694;2023-08-31T03:44:52;2.80;;;2.13;;
22240;SDS011;11289;52.524;13.694;2023-08-31T03:47:19;2.50;;;2.13;;
22240;SDS011;11289;52.524;13.694;2023-08-31T03:49:45;2.20;;;1.88;;
22240;SDS011;11289;52.524;13.694;2023-08-31T03:52:11;3.08;;;1.95;;
22240;SDS011;11289;52.524;13.694;2023-08-31T03:54:38;2.67;;;1.90;;
22240;SDS011;11289;52.524;13.694;2023-08-31T03:57:05;3.15;;;2.28;;
22240;SDS011;11289;52.524;13.694;2023-08-31T03:59:31;3.25;;;2.40;;
22240;SDS011;11289;52.524;13.694;2023-08-31T04:01:57;5.20;;;3.78;;
22240;SDS011;11289;52.524;13.694;2023-08-31T04:04:24;4.05;;;3.00;;
22240;SDS011;11289;52.524;13.694;2023-08-31T04:06:50;2.10;;;1.67;;
22240;SDS011;11289;52.524;13.694;2023-08-31T04:09:16;3.60;;;2.58;;
22240;SDS011;11289;52.524;13.694;2023-08-31T04:11:42;2.83;;;1.77;;
22240;SDS011;11289;52.524;13.694;2023-08-31T04:14:08;2.88;;;2.05;;
22240;SDS011;11289;52.524;13.694;2023-08-31T04:16:35;2.55;;;1.80;;
22240;SDS011;11289;52.524;13.694;2023-08-31T04:19:04;4.57;;;3.60;;
22240;SDS011;11289;52.524;13.694;2023-08-31T04:21:36;2.95;;;2.22;;
22240;SDS011;11289;52.524;13.694;2023-08-31T04:24:04;3.20;;;2.35;;
22240;SDS011;11289;52.524;13.694;2023-08-31T04:26:31;2.92;;;2.38;;
22240;SDS011;11289;52.524;13.694;2023-08-31T04:28:58;2.70;;;2.28;;
22240;SDS011;11289;52.524;13.694;2023-08-31T04:31:38;2.58;;;1.98;;
22240;SDS011;11289;52.524;13.694;2023-08-31T04:34:05;5.97;;;2.22;;
22240;SDS011;11289;52.524;13.694;2023-08-31T04:36:31;3.38;;;2.40;;
22240;SDS011;11289;52.524;13.694;2023-08-31T04:38:57;4.35;;;2.20;;
22240;SDS011;11289;52.524;13.694;2023-08-31T04:41:23;2.95;;;2.50;;
22240;SDS011;11289;52.524;13.694;2023-08-31T04:43:49;4.22;;;3.13;;
22240;SDS011;11289;52.524;13.694;2023-08-31T04:46:15;4.75;;;3.13;;
22240;SDS011;11289;52.524;13.694;2023-08-31T04:48:41;3.55;;;2.70;;
22240;SDS011;11289;52.524;13.694;2023-08-31T04:51:26;5.13;;;3.33;;
22240;SDS011;11289;52.524;13.694;2023-08-31T04:53:55;4.13;;;3.15;;
22240;SDS011;11289;52.524;13.694;2023-08-31T04:56:21;5.90;;;3.97;;
22240;SDS011;11289;52.524;13.694;2023-08-31T04:58:47;6.22;;;4.18;;
22240;SDS011;11289;52.524;13.694;2023-08-31T05:01:14;6.25;;;4.15;;
22240;SDS011;11289;52.524;13.694;2023-08-31T05:03:41;6.35;;;4.68;;
22240;SDS011;11289;52.524;13.694;2023-08-31T05:06:07;7.85;;;4.75;;
22240;SDS011;11289;52.524;13.694;2023-08-31T05:08:33;6.22;;;5.10;;
22240;SDS011;11289;52.524;13.694;2023-08-31T05:10:59;6.47;;;4.70;;
22240;SDS011;11289;52.524;13.694;2023-08-31T05:13:25;6.47;;;4.90;;
22240;SDS011;11289;52.524;13.694;2023-08-31T05:15:51;5.95;;;4.97;;
22240;SDS011;11289;52.524;13.694;2023-08-31T05:18:17;8.13;;;5.10;;
22240;SDS011;11289;52.524;13.694;2023-08-31T05:20:46;8.05;;;5.85;;
22240;SDS011;11289;52.524;13.694;2023-08-31T05:23:14;8.18;;;5.93;;
22240;SDS011;11289;52.524;13.694;2023-08-31T05:25:44;10.45;;;6.07;;
22240;SDS011;11289;52.524;13.694;2023-08-31T05:28:10;8.55;;;5.68;;
22240;SDS011;11289;52.524;13.694;2023-08-31T05:30:36;10.30;;;6.65;;
22240;SDS011;11289;52.524;13.694;2023-08-31T05:33:02;9.00;;;6.90;;
22240;SDS011;11289;52.524;13.694;2023-08-31T05:35:30;10.10;;;7.10;;
22240;SDS011;11289;52.524;13.694;2023-08-31T05:37:56;8.57;;;7.00;;
22240;SDS011;11289;52.524;13.694;2023-08-31T05:40:22;7.82;;;6.68;;
22240;SDS011;11289;52.524;13.694;2023-08-31T05:42:48;9.15;;;6.43;;
22240;SDS011;11289;52.524;13.694;2023-08-31T05:45:14;10.48;;;6.43;;
22240;SDS011;11289;52.524;13.694;2023-08-31T05:47:40;8.45;;;6.38;;
22240;SDS011;11289;52.524;13.694;2023-08-31T05:50:07;7.22;;;6.40;;
22240;SDS011;11289;52.524;13.694;2023-08-31T05:52:33;8.90;;;6.88;;
22240;SDS011;11289;52.524;13.694;2023-08-31T05:54:59;8.45;;;7.10;;
22240;SDS011;11289;52.524;13.694;2023-08-31T05:57:25;9.10;;;6.72;;
22240;SDS011;11289;52.524;13.694;2023-08-31T05:59:53;9.35;;;7.10;;
22240;SDS011;11289;52.524;13.694;2023-08-31T06:02:19;13.73;;;8.00;;
22240;SDS011;11289;52.524;13.694;2023-08-31T06:04:45;8.63;;;7.07;;
22240;SDS011;11289;52.524;13.694;2023-08-31T06:07:14;9.05;;;7.30;;
22240;SDS011;11289;52.524;13.694;2023-08-31T06:09:45;9.02;;;7.28;;
22240;SDS011;11289;52.524;13.694;2023-08-31T06:12:11;11.68;;;7.18;;
22240;SDS011;11289;52.524;13.694;2023-08-31T06:14:37;9.10;;;6.85;;
22240;SDS011;11289;52.524;13.694;2023-08-31T06:17:03;7.85;;;6.05;;
22240;SDS011;11289;52.524;13.694;2023-08-31T06:19:30;10.40;;;6.40;;
22240;SDS011;11289;52.524;13.694;2023-08-31T06:21:56;8.25;;;6.43;;
22240;SDS011;11289;52.524;13.694;2023-08-31T06:24:22;7.97;;;6.15;;
22240;SDS011;11289;52.524;13.694;2023-08-31T06:26:48;9.73;;;6.53;;
22240;SDS011;11289;52.524;13.694;2023-08-31T06:29:14;8.38;;;6.95;;
22240;SDS011;11289;52.524;13.694;2023-08-31T06:31:40;9.75;;;6.95;;
22240;SDS011;11289;52.524;13.694;2023-08-31T06:34:06;11.23;;;7.57;;
22240;SDS011;11289;52.524;13.694;2023-08-31T06:36:32;8.35;;;6.32;;
22240;SDS011;11289;52.524;13.694;2023-08-31T06:38:58;7.88;;;6.82;;
22240;SDS011;11289;52.524;13.694;2023-08-31T06:41:24;9.25;;;6.20;;
22240;SDS011;11289;52.524;13.694;2023-08-31T06:43:50;9.98;;;6.40;;
22240;SDS011;11289;52.524;13.694;2023-08-31T06:46:20;8.07;;;6.63;;
22240;SDS011;11289;52.524;13.694;2023-08-31T06:48:46;7.85;;;6.40;;
22240;SDS011;11289;52.524;13.694;2023-08-31T06:51:12;9.07;;;6.80;;
22240;SDS011;11289;52.524;13.694;2023-08-31T06:53:38;9.35;;;6.78;;
22240;SDS011;11289;52.524;13.694;2023-08-31T06:56:04;8.13;;;6.30;;
22240;SDS011;11289;52.524;13.694;2023-08-31T06:58:30;7.05;;;6.35;;
22240;SDS011;11289;52.524;13.694;2023-08-31T07:00:56;8.57;;;6.22;;
22240;SDS011;11289;52.524;13.694;2023-08-31T07:03:22;8.27;;;6.85;;
22240;SDS011;11289;52.524;13.694;2023-08-31T07:05:48;8.88;;;6.88;;
22240;SDS011;11289;52.524;13.694;2023-08-31T07:08:15;8.23;;;5.97;;
22240;SDS011;11289;52.524;13.694;2023-08-31T07:10:40;11.32;;;5.75;;
22240;SDS011;11289;52.524;13.694;2023-08-31T07:13:07;6.88;;;5.90;;
22240;SDS011;11289;52.524;13.694;2023-08-31T07:15:33;8.32;;;6.13;;
22240;SDS011;11289;52.524;13.694;2023-08-31T07:18:02;8.85;;;6.60;;
22240;SDS011;11289;52.524;13.694;2023-08-31T07:20:28;9.45;;;5.70;;
22240;SDS011;11289;52.524;13.694;2023-08-31T07:22:54;6.30;;;4.97;;
22240;SDS011;11289;52.524;13.694;2023-08-31T07:25:20;6.95;;;5.70;;
22240;SDS011;11289;52.524;13.694;2023-08-31T07:27:46;7.65;;;5.38;;
22240;SDS011;11289;52.524;13.694;2023-08-31T07:30:12;7.15;;;5.10;;
22240;SDS011;11289;52.524;13.694;2023-08-31T07:32:38;7.15;;;5.90;;
22240;SDS011;11289;52.524;13.694;2023-08-31T07:35:04;8.88;;;5.18;;
22240;SDS011;11289;52.524;13.694;2023-08-31T07:37:30;6.43;;;5.07;;
22240;SDS011;11289;52.524;13.694;2023-08-31T07:39:56;6.28;;;4.53;;
22240;SDS011;11289;52.524;13.694;2023-08-31T07:42:22;8.50;;;4.93;;
22240;SDS011;11289;52.524;13.694;2023-08-31T07:44:49;9.65;;;7.25;;
22240;SDS011;11289;52.524;13.694;2023-08-31T07:47:15;11.90;;;8.38;;
22240;SDS011;11289;52.524;13.694;2023-08-31T07:49:41;6.10;;;5.50;;
22240;SDS011;11289;52.524;13.694;2023-08-31T07:52:07;6.78;;;4.88;;
22240;SDS011;11289;52.524;13.694;2023-08-31T07:54:35;8.38;;;4.97;;
22240;SDS011;11289;52.524;13.694;2023-08-31T07:57:01;6.70;;;5.00;;
22240;SDS011;11289;52.524;13.694;2023-08-31T07:59:27;5.20;;;4.65;;
22240;SDS011;11289;52.524;13.694;2023-08-31T08:01:53;8.13;;;4.78;;
22240;SDS011;11289;52.524;13.694;2023-08-31T08:04:19;7.07;;;4.35;;
22240;SDS011;11289;52.524;13.694;2023-08-31T08:06:45;8.00;;;4.05;;
22240;SDS011;11289;52.524;13.694;2023-08-31T08:09:11;7.43;;;4.05;;
22240;SDS011;11289;52.524;13.694;2023-08-31T08:11:38;8.27;;;4.00;;
22240;SDS011;11289;52.524;13.694;2023-08-31T08:14:04;5.40;;;3.47;;
22240;SDS011;11289;52.524;13.694;2023-08-31T08:16:30;9.45;;;3.97;;
22240;SDS011;11289;52.524;13.694;2023-08-31T08:18:56;10.73;;;3.67;;
22240;SDS011;11289;52.524;13.694;2023-08-31T08:21:25;6.38;;;3.17;;
22240;SDS011;11289;52.524;13.694;2023-08-31T08:23:55;4.53;;;3.47;;
22240;SDS011;11289;52.524;13.694;2023-08-31T08:26:21;5.78;;;3.58;;
22240;SDS011;11289;52.524;13.694;2023-08-31T08:28:47;5.93;;;3.78;;
22240;SDS011;11289;52.524;13.694;2023-08-31T08:31:13;4.78;;;3.15;;
22240;SDS011;11289;52.524;13.694;2023-08-31T08:33:39;5.22;;;3.40;;
22240;SDS011;11289;52.524;13.694;2023-08-31T08:36:05;4.75;;;2.95;;
22240;SDS011;11289;52.524;13.694;2023-08-31T08:38:35;6.68;;;3.47;;
22240;SDS011;11289;52.524;13.694;2023-08-31T08:41:07;6.22;;;3.28;;
22240;SDS011;11289;52.524;13.694;2023-08-31T08:43:33;3.38;;;2.63;;
22240;SDS011;11289;52.524;13.694;2023-08-31T08:46:04;2.67;;;1.92;;
22240;SDS011;11289;52.524;13.694;2023-08-31T08:48:34;2.80;;;1.75;;
22240;SDS011;11289;52.524;13.694;2023-08-31T08:51:03;4.85;;;2.05;;
22240;SDS011;11289;52.524;13.694;2023-08-31T08:53:33;2.95;;;1.95;;
22240;SDS011;11289;52.524;13.694;2023-08-31T08:56:00;3.95;;;1.65;;
22240;SDS011;11289;52.524;13.694;2023-08-31T08:58:26;6.53;;;1.63;;
22240;SDS011;11289;52.524;13.694;2023-08-31T09:00:56;4.13;;;2.08;;
22240;SDS011;11289;52.524;13.694;2023-08-31T09:03:26;3.63;;;1.60;;
22240;SDS011;11289;52.524;13.694;2023-08-31T09:05:52;3.65;;;1.50;;
22240;SDS011;11289;52.524;13.694;2023-08-31T09:08:24;4.57;;;2.22;;
22240;SDS011;11289;52.524;13.694;2023-08-31T09:10:54;4.88;;;1.92;;
22240;SDS011;11289;52.524;13.694;2023-08-31T09:13:28;3.30;;;1.88;;
22240;SDS011;11289;52.524;13.694;2023-08-31T09:15:58;3.15;;;2.00;;
22240;SDS011;11289;52.524;13.694;2023-08-31T09:18:28;2.63;;;1.70;;
22240;SDS011;11289;52.524;13.694;2023-08-31T09:20:56;3.60;;;1.90;;
22240;SDS011;11289;52.524;13.694;2023-08-31T09:23:22;4.57;;;1.50;;
22240;SDS011;11289;52.524;13.694;2023-08-31T09:25:50;3.17;;;1.70;;
22240;SDS011;11289;52.524;13.694;2023-08-31T09:28:19;6.93;;;1.95;;
22240;SDS011;11289;52.524;13.694;2023-08-31T09:30:48;4.78;;;1.85;;
22240;SDS011;11289;52.524;13.694;2023-08-31T09:33:16;4.38;;;1.60;;
22240;SDS011;11289;52.524;13.694;2023-08-31T09:35:47;3.33;;;1.27;;
22240;SDS011;11289;52.524;13.694;2023-08-31T09:38:16;3.45;;;1.50;;
22240;SDS011;11289;52.524;13.694;2023-08-31T09:40:42;4.07;;;1.40;;
22240;SDS011;11289;52.524;13.694;2023-08-31T09:43:08;4.00;;;1.20;;
22240;SDS011;11289;52.524;13.694;2023-08-31T09:45:34;4.05;;;1.83;;
22240;SDS011;11289;52.524;13.694;2023-08-31T09:48:02;4.70;;;1.45;;
22240;SDS011;11289;52.524;13.694;2023-08-31T09:50:30;3.58;;;1.05;;
22240;SDS011;11289;52.524;13.694;2023-08-31T09:53:02;4.70;;;1.33;;
22240;SDS011;11289;52.524;13.694;2023-08-31T09:55:33;3.47;;;1.20;;
22240;SDS011;11289;52.524;13.694;2023-08-31T09:58:01;3.58;;;1.15;;
22240;SDS011;11289;52.524;13.694;2023-08-31T10:00:32;2.10;;;1.13;;
22240;SDS011;11289;52.524;13.694;2023-08-31T10:03:04;3.30;;;1.25;;
22240;SDS011;11289;52.524;13.694;2023-08-31T10:05:32;3.22;;;1.92;;
22240;SDS011;11289;52.524;13.694;2023-08-31T10:07:59;3.45;;;1.55;;
22240;SDS011;11289;52.524;13.694;2023-08-31T10:10:28;2.88;;;1.27;;
22240;SDS011;11289;52.524;13.694;2023-08-31T10:13:00;5.25;;;1.25;;
22240;SDS011;11289;52.524;13.694;2023-08-31T10:15:31;6.68;;;1.70;;
22240;SDS011;11289;52.524;13.694;2023-08-31T10:18:05;3.65;;;1.67;;
22240;SDS011;11289;52.524;13.694;2023-08-31T10:20:42;2.72;;;1.10;;
22240;SDS011;11289;52.524;13.694;2023-08-31T10:23:11;6.38;;;1.40;;
22240;SDS011;11289;52.524;13.694;2023-08-31T10:28:21;2.67;;;1.13;;
22240;SDS011;11289;52.524;13.694;2023-08-31T10:31:07;1.70;;;0.80;;
22240;SDS011;11289;52.524;13.694;2023-08-31T10:33:41;5.03;;;1.10;;
22240;SDS011;11289;52.524;13.694;2023-08-31T10:36:09;1.60;;;1.15;;
22240;SDS011;11289;52.524;13.694;2023-08-31T10:38:47;2.17;;;1.00;;
22240;SDS011;11289;52.524;13.694;2023-08-31T10:41:32;2.85;;;1.00;;
22240;SDS011;11289;52.524;13.694;2023-08-31T10:43:59;2.10;;;1.10;;
22240;SDS011;11289;52.524;13.694;2023-08-31T10:51:37;7.38;;;1.50;;
22240;SDS011;11289;52.524;13.694;2023-08-31T10:54:05;2.58;;;0.82;;
22240;SDS011;11289;52.524;13.694;2023-08-31T11:05:05;4.40;;;0.90;;
22240;SDS011;11289;52.524;13.694;2023-08-31T11:07:46;1.42;;;0.70;;
22240;SDS011;11289;52.524;13.694;2023-08-31T11:10:15;5.45;;;1.05;;
22240;SDS011;11289;52.524;13.694;2023-08-31T11:12:45;3.80;;;0.80;;
22240;SDS011;11289;52.524;13.694;2023-08-31T11:15:15;0.63;;;0.52;;
22240;SDS011;11289;52.524;13.694;2023-08-31T11:17:43;3.00;;;0.98;;
22240;SDS011;11289;52.524;13.694;2023-08-31T11:20:12;5.30;;;0.70;;
22240;SDS011;11289;52.524;13.694;2023-08-31T11:22:40;1.17;;;0.60;;
22240;SDS011;11289;52.524;13.694;2023-08-31T11:25:08;1.58;;;0.90;;
22240;SDS011;11289;52.524;13.694;2023-08-31T11:27:35;3.70;;;1.00;;
22240;SDS011;11289;52.524;13.694;2023-08-31T11:30:01;2.10;;;1.00;;
22240;SDS011;11289;52.524;13.694;2023-08-31T11:32:27;2.13;;;1.00;;
22240;SDS011;11289;52.524;13.694;2023-08-31T11:34:53;3.70;;;0.70;;
22240;SDS011;11289;52.524;13.694;2023-08-31T11:37:19;2.60;;;1.50;;
22240;SDS011;11289;52.524;13.694;2023-08-31T11:39:51;3.90;;;1.00;;
22240;SDS011;11289;52.524;13.694;2023-08-31T11:42:19;3.38;;;1.10;;
22240;SDS011;11289;52.524;13.694;2023-08-31T11:44:46;2.70;;;1.20;;
22240;SDS011;11289;52.524;13.694;2023-08-31T11:47:14;1.42;;;1.10;;
22240;SDS011;11289;52.524;13.694;2023-08-31T11:49:41;2.50;;;1.00;;
22240;SDS011;11289;52.524;13.694;2023-08-31T11:52:11;3.28;;;1.02;;
22240;SDS011;11289;52.524;13.694;2023-08-31T11:54:39;3.45;;;1.20;;
22240;SDS011;11289;52.524;13.694;2023-08-31T11:57:09;4.68;;;1.15;;
22240;SDS011;11289;52.524;13.694;2023-08-31T11:59:36;2.97;;;0.90;;
22240;SDS011;11289;52.524;13.694;2023-08-31T12:02:07;3.70;;;1.15;;
22240;SDS011;11289;52.524;13.694;2023-08-31T12:04:41;2.55;;;0.95;;
22240;SDS011;11289;52.524;13.694;2023-08-31T12:07:09;1.92;;;0.90;;
22240;SDS011;11289;52.524;13.694;2023-08-31T12:09:35;2.83;;;1.08;;
22240;SDS011;11289;52.524;13.694;2023-08-31T12:12:02;1.65;;;0.98;;
22240;SDS011;11289;52.524;13.694;2023-08-31T12:14:30;2.47;;;1.67;;
22240;SDS011;11289;52.524;13.694;2023-08-31T12:17:00;4.15;;;1.30;;
22240;SDS011;11289;52.524;13.694;2023-08-31T12:19:29;2.90;;;1.20;;
22240;SDS011;11289;52.524;13.694;2023-08-31T12:21:56;3.35;;;1.10;;
22240;SDS011;11289;52.524;13.694;2023-08-31T12:24:22;5.70;;;1.38;;
22240;SDS011;11289;52.524;13.694;2023-08-31T12:26:51;3.33;;;1.25;;
22240;SDS011;11289;52.524;13.694;2023-08-31T12:29:21;3.33;;;1.50;;
22240;SDS011;11289;52.524;13.694;2023-08-31T12:31:48;4.53;;;1.10;;
22240;SDS011;11289;52.524;13.694;2023-08-31T12:34:15;2.67;;;1.05;;
22240;SDS011;11289;52.524;13.694;2023-08-31T12:36:41;7.28;;;1.83;;
22240;SDS011;11289;52.524;13.694;2023-08-31T12:39:08;5.30;;;1.50;;
22240;SDS011;11289;52.524;13.694;2023-08-31T12:41:38;6.70;;;1.65;;
22240;SDS011;11289;52.524;13.694;2023-08-31T12:44:07;6.00;;;1.20;;
22240;SDS011;11289;52.524;13.694;2023-08-31T12:46:33;7.18;;;1.70;;
22240;SDS011;11289;52.524;13.694;2023-08-31T12:49:00;1.88;;;1.10;;
22240;SDS011;11289;52.524;13.694;2023-08-31T12:51:28;3.35;;;1.20;;
22240;SDS011;11289;52.524;13.694;2023-08-31T12:53:54;2.95;;;1.10;;
22240;SDS011;11289;52.524;13.694;2023-08-31T12:56:20;3.83;;;1.40;;
22240;SDS011;11289;52.524;13.694;2023-08-31T12:58:49;10.40;;;6.03;;
22240;SDS011;11289;52.524;13.694;2023-08-31T13:01:16;4.82;;;2.70;;
22240;SDS011;11289;52.524;13.694;2023-08-31T13:03:43;2.95;;;1.40;;
22240;SDS011;11289;52.524;13.694;2023-08-31T13:06:10;2.65;;;1.40;;
22240;SDS011;11289;52.524;13.694;2023-08-31T13:08:35;1.65;;;1.20;;
22240;SDS011;11289;52.524;13.694;2023-08-31T13:11:01;2.85;;;1.40;;
22240;SDS011;11289;52.524;13.694;2023-08-31T13:13:29;4.97;;;1.75;;
22240;SDS011;11289;52.524;13.694;2023-08-31T13:15:56;6.00;;;1.92;;
22240;SDS011;11289;52.524;13.694;2023-08-31T13:18:23;2.67;;;1.70;;
22240;SDS011;11289;52.524;13.694;2023-08-31T13:20:52;4.65;;;1.80;;
22240;SDS011;11289;52.524;13.694;2023-08-31T13:23:19;2.08;;;1.50;;
22240;SDS011;11289;52.524;13.694;2023-08-31T13:25:46;3.40;;;2.03;;
22240;SDS011;11289;52.524;13.694;2023-08-31T13:28:12;3.92;;;1.92;;
22240;SDS011;11289;52.524;13.694;2023-08-31T13:30:39;4.03;;;2.35;;
22240;SDS011;11289;52.524;13.694;2023-08-31T13:37:11;2.47;;;1.80;;
22240;SDS011;11289;52.524;13.694;2023-08-31T13:40:11;3.28;;;1.52;;
22240;SDS011;11289;52.524;13.694;2023-08-31T13:54:47;4.43;;;1.45;;
22240;SDS011;11289;52.524;13.694;2023-08-31T13:58:38;2.55;;;1.50;;
22240;SDS011;11289;52.524;13.694;2023-08-31T14:06:11;2.55;;;1.27;;
22240;SDS011;11289;52.524;13.694;2023-08-31T14:12:24;3.80;;;1.67;;
22240;SDS011;11289;52.524;13.694;2023-08-31T14:21:40;1.40;;;1.25;;
22240;SDS011;11289;52.524;13.694;2023-08-31T14:24:19;2.38;;;1.30;;
22240;SDS011;11289;52.524;13.694;2023-08-31T14:26:48;1.95;;;1.42;;
22240;SDS011;11289;52.524;13.694;2023-08-31T14:29:40;1.65;;;1.40;;
22240;SDS011;11289;52.524;13.694;2023-08-31T14:33:27;3.90;;;1.00;;
22240;SDS011;11289;52.524;13.694;2023-08-31T14:36:15;8.30;;;5.55;;
22240;SDS011;11289;52.524;13.694;2023-08-31T14:39:02;2.60;;;1.52;;
22240;SDS011;11289;52.524;13.694;2023-08-31T15:10:27;2.20;;;0.90;;
22240;SDS011;11289;52.524;13.694;2023-08-31T15:13:27;2.67;;;1.30;;
22240;SDS011;11289;52.524;13.694;2023-08-31T17:51:52;3.38;;;1.40;;
22240;SDS011;11289;52.524;13.694;2023-08-31T17:54:18;4.10;;;1.42;;
22240;SDS011;11289;52.524;13.694;2023-08-31T17:56:44;1.25;;;1.08;;
22240;SDS011;11289;52.524;13.694;2023-08-31T17:59:10;2.05;;;1.00;;
22240;SDS011;11289;52.524;13.694;2023-08-31T18:01:41;2.42;;;1.40;;
22240;SDS011;11289;52.524;13.694;2023-08-31T18:04:07;2.00;;;1.00;;
22240;SDS011;11289;52.524;13.694;2023-08-31T18:06:33;1.60;;;0.95;;
22240;SDS011;11289;52.524;13.694;2023-08-31T18:08:59;3.38;;;1.15;;
22240;SDS011;11289;52.524;13.694;2023-08-31T18:11:25;1.45;;;1.02;;
22240;SDS011;11289;52.524;13.694;2023-08-31T18:13:51;1.95;;;1.30;;
22240;SDS011;11289;52.524;13.694;2023-08-31T18:16:17;2.60;;;1.20;;
22240;SDS011;11289;52.524;13.694;2023-08-31T18:18:43;2.60;;;1.65;;
22240;SDS011;11289;52.524;13.694;2023-08-31T18:21:09;10.60;;;6.80;;
22240;SDS011;11289;52.524;13.694;2023-08-31T18:23:36;9.32;;;5.85;;
22240;SDS011;11289;52.524;13.694;2023-08-31T18:26:03;3.65;;;2.40;;
22240;SDS011;11289;52.524;13.694;2023-08-31T18:28:29;2.85;;;1.60;;
22240;SDS011;11289;52.524;13.694;2023-08-31T18:30:56;2.00;;;1.30;;
22240;SDS011;11289;52.524;13.694;2023-08-31T18:33:24;1.88;;;1.17;;
22240;SDS011;11289;52.524;13.694;2023-08-31T18:35:50;3.05;;;1.30;;
22240;SDS011;11289;52.524;13.694;2023-08-31T18:38:17;2.78;;;1.30;;
22240;SDS011;11289;52.524;13.694;2023-08-31T18:40:52;1.70;;;1.33;;
22240;SDS011;11289;52.524;13.694;2023-08-31T18:43:19;3.38;;;1.30;;
22240;SDS011;11289;52.524;13.694;2023-08-31T18:45:46;2.97;;;1.05;;